sensor_id;sensor_type;location;lat;lon;timestamp;P1;durP1;ratioP1;P2;durP2;ratioP2
85603;SDS011;76031;53.256;5.762;2024-02-21T00:00:48;9.57;;;2.30;;
85603;SDS011;76031;53.256;5.762;2024-02-21T00:03:13;12.60;;;2.93;;
85603;SDS011;76031;53.256;5.762;2024-02-21T00:05:38;19.85;;;4.43;;
85603;SDS011;76031;53.256;5.762;2024-02-21T00:08:04;13.40;;;3.15;;
85603;SDS011;76031;53.256;5.762;2024-02-21T00:10:29;15.90;;;3.58;;
85603;SDS011;76031;53.256;5.762;2024-02-21T00:12:56;14.70;;;2.45;;
85603;SDS011;76031;53.256;5.762;2024-02-21T00:15:22;21.10;;;3.25;;
85603;SDS011;76031;53.256;5.762;2024-02-21T00:17:47;16.98;;;3.03;;
85603;SDS011;76031;53.256;5.762;2024-02-21T00:20:13;16.23;;;4.35;;
85603;SDS011;76031;53.256;5.762;2024-02-21T00:22:39;18.97;;;3.87;;
85603;SDS011;76031;53.256;5.762;2024-02-21T00:25:04;15.50;;;3.13;;
85603;SDS011;76031;53.256;5.762;2024-02-21T00:27:29;22.85;;;3.63;;
85603;SDS011;76031;53.256;5.762;2024-02-21T00:29:55;12.10;;;3.35;;
85603;SDS011;76031;53.256;5.762;2024-02-21T00:32:20;19.03;;;3.47;;
85603;SDS011;76031;53.256;5.762;2024-02-21T00:34:45;18.88;;;3.47;;
85603;SDS011;76031;53.256;5.762;2024-02-21T00:37:11;17.27;;;3.73;;
85603;SDS011;76031;53.256;5.762;2024-02-21T00:39:36;17.17;;;3.30;;
85603;SDS011;76031;53.256;5.762;2024-02-21T00:42:02;23.38;;;3.88;;
85603;SDS011;76031;53.256;5.762;2024-02-21T00:44:27;15.02;;;2.90;;
85603;SDS011;76031;53.256;5.762;2024-02-21T00:46:52;15.27;;;3.57;;
85603;SDS011;76031;53.256;5.762;2024-02-21T00:49:18;16.48;;;3.83;;
85603;SDS011;76031;53.256;5.762;2024-02-21T00:51:43;16.80;;;4.40;;
85603;SDS011;76031;53.256;5.762;2024-02-21T00:54:08;14.23;;;3.80;;
85603;SDS011;76031;53.256;5.762;2024-02-21T00:56:34;10.90;;;4.07;;
85603;SDS011;76031;53.256;5.762;2024-02-21T00:58:59;16.70;;;4.57;;
85603;SDS011;76031;53.256;5.762;2024-02-21T01:01:24;18.50;;;4.20;;
85603;SDS011;76031;53.256;5.762;2024-02-21T01:03:50;16.38;;;5.32;;
85603;SDS011;76031;53.256;5.762;2024-02-21T01:06:18;16.92;;;3.88;;
85603;SDS011;76031;53.256;5.762;2024-02-21T01:08:43;14.07;;;3.70;;
85603;SDS011;76031;53.256;5.762;2024-02-21T01:11:08;18.90;;;4.97;;
85603;SDS011;76031;53.256;5.762;2024-02-21T01:13:34;18.23;;;4.53;;
85603;SDS011;76031;53.256;5.762;2024-02-21T01:15:59;13.07;;;3.53;;
85603;SDS011;76031;53.256;5.762;2024-02-21T01:18:24;18.33;;;5.45;;
85603;SDS011;76031;53.256;5.762;2024-02-21T01:20:50;15.23;;;4.43;;
85603;SDS011;76031;53.256;5.762;2024-02-21T01:23:15;24.37;;;5.13;;
85603;SDS011;76031;53.256;5.762;2024-02-21T01:25:40;21.73;;;5.43;;
85603;SDS011;76031;53.256;5.762;2024-02-21T01:28:06;15.10;;;4.27;;
85603;SDS011;76031;53.256;5.762;2024-02-21T01:30:31;13.27;;;3.17;;
85603;SDS011;76031;53.256;5.762;2024-02-21T01:32:56;20.00;;;3.93;;
85603;SDS011;76031;53.256;5.762;2024-02-21T01:35:22;18.77;;;3.73;;
85603;SDS011;76031;53.256;5.762;2024-02-21T01:37:47;16.23;;;3.63;;
85603;SDS011;76031;53.256;5.762;2024-02-21T01:40:12;19.20;;;4.95;;
85603;SDS011;76031;53.256;5.762;2024-02-21T01:42:38;17.98;;;3.78;;
85603;SDS011;76031;53.256;5.762;2024-02-21T01:45:05;15.05;;;3.60;;
85603;SDS011;76031;53.256;5.762;2024-02-21T01:47:30;15.75;;;4.32;;
85603;SDS011;76031;53.256;5.762;2024-02-21T01:49:55;20.17;;;4.43;;
85603;SDS011;76031;53.256;5.762;2024-02-21T01:52:21;18.63;;;4.07;;
85603;SDS011;76031;53.256;5.762;2024-02-21T01:54:46;24.30;;;4.53;;
85603;SDS011;76031;53.256;5.762;2024-02-21T01:57:11;23.17;;;4.47;;
85603;SDS011;76031;53.256;5.762;2024-02-21T01:59:37;14.63;;;3.97;;
85603;SDS011;76031;53.256;5.762;2024-02-21T02:02:02;12.95;;;3.53;;
85603;SDS011;76031;53.256;5.762;2024-02-21T02:04:27;26.15;;;5.72;;
85603;SDS011;76031;53.256;5.762;2024-02-21T02:06:54;20.60;;;4.78;;
85603;SDS011;76031;53.256;5.762;2024-02-21T02:09:19;19.33;;;3.38;;
85603;SDS011;76031;53.256;5.762;2024-02-21T02:11:45;20.50;;;3.53;;
85603;SDS011;76031;53.256;5.762;2024-02-21T02:14:10;17.87;;;3.73;;
85603;SDS011;76031;53.256;5.762;2024-02-21T02:16:35;19.10;;;4.93;;
85603;SDS011;76031;53.256;5.762;2024-02-21T02:19:00;15.97;;;3.57;;
85603;SDS011;76031;53.256;5.762;2024-02-21T02:21:30;18.57;;;5.10;;
85603;SDS011;76031;53.256;5.762;2024-02-21T02:23:57;15.15;;;2.70;;
85603;SDS011;76031;53.256;5.762;2024-02-21T02:26:23;16.85;;;3.50;;
85603;SDS011;76031;53.256;5.762;2024-02-21T02:28:48;17.40;;;4.13;;
85603;SDS011;76031;53.256;5.762;2024-02-21T02:31:13;16.43;;;3.70;;
85603;SDS011;76031;53.256;5.762;2024-02-21T02:33:38;15.37;;;3.00;;
85603;SDS011;76031;53.256;5.762;2024-02-21T02:36:04;16.08;;;3.72;;
85603;SDS011;76031;53.256;5.762;2024-02-21T02:38:31;18.42;;;3.25;;
85603;SDS011;76031;53.256;5.762;2024-02-21T02:40:56;14.43;;;3.67;;
85603;SDS011;76031;53.256;5.762;2024-02-21T02:43:22;14.20;;;3.03;;
85603;SDS011;76031;53.256;5.762;2024-02-21T02:45:47;17.67;;;3.53;;
85603;SDS011;76031;53.256;5.762;2024-02-21T02:48:12;23.17;;;3.17;;
85603;SDS011;76031;53.256;5.762;2024-02-21T02:50:37;17.57;;;3.30;;
85603;SDS011;76031;53.256;5.762;2024-02-21T02:53:03;18.37;;;3.80;;
85603;SDS011;76031;53.256;5.762;2024-02-21T02:55:29;20.42;;;4.30;;
85603;SDS011;76031;53.256;5.762;2024-02-21T03:00:20;23.83;;;4.22;;
85603;SDS011;76031;53.256;5.762;2024-02-21T03:02:46;22.17;;;3.67;;
85603;SDS011;76031;53.256;5.762;2024-02-21T03:05:16;23.73;;;4.65;;
85603;SDS011;76031;53.256;5.762;2024-02-21T03:07:42;22.02;;;4.57;;
85603;SDS011;76031;53.256;5.762;2024-02-21T03:10:08;16.40;;;4.45;;
85603;SDS011;76031;53.256;5.762;2024-02-21T03:12:33;17.63;;;3.45;;
85603;SDS011;76031;53.256;5.762;2024-02-21T03:14:58;24.23;;;5.07;;
85603;SDS011;76031;53.256;5.762;2024-02-21T03:17:24;22.77;;;4.93;;
85603;SDS011;76031;53.256;5.762;2024-02-21T03:19:49;21.10;;;5.35;;
85603;SDS011;76031;53.256;5.762;2024-02-21T03:22:15;17.23;;;4.00;;
85603;SDS011;76031;53.256;5.762;2024-02-21T03:24:41;23.40;;;4.30;;
85603;SDS011;76031;53.256;5.762;2024-02-21T03:27:06;23.33;;;4.30;;
85603;SDS011;76031;53.256;5.762;2024-02-21T03:29:31;13.27;;;3.07;;
85603;SDS011;76031;53.256;5.762;2024-02-21T03:31:57;17.47;;;3.90;;
85603;SDS011;76031;53.256;5.762;2024-02-21T03:34:22;22.27;;;4.13;;
85603;SDS011;76031;53.256;5.762;2024-02-21T03:36:47;18.70;;;3.87;;
85603;SDS011;76031;53.256;5.762;2024-02-21T03:39:12;22.70;;;4.43;;
85603;SDS011;76031;53.256;5.762;2024-02-21T03:41:38;14.73;;;4.30;;
85603;SDS011;76031;53.256;5.762;2024-02-21T03:44:03;13.47;;;3.00;;
85603;SDS011;76031;53.256;5.762;2024-02-21T03:46:28;18.80;;;4.15;;
85603;SDS011;76031;53.256;5.762;2024-02-21T03:48:56;18.38;;;3.85;;
85603;SDS011;76031;53.256;5.762;2024-02-21T03:51:22;19.65;;;3.70;;
85603;SDS011;76031;53.256;5.762;2024-02-21T03:53:47;24.27;;;5.27;;
85603;SDS011;76031;53.256;5.762;2024-02-21T03:56:12;25.07;;;4.20;;
85603;SDS011;76031;53.256;5.762;2024-02-21T03:58:38;22.03;;;4.30;;
85603;SDS011;76031;53.256;5.762;2024-02-21T04:01:03;20.97;;;5.03;;
85603;SDS011;76031;53.256;5.762;2024-02-21T04:03:29;22.70;;;3.65;;
85603;SDS011;76031;53.256;5.762;2024-02-21T04:05:54;24.80;;;4.35;;
85603;SDS011;76031;53.256;5.762;2024-02-21T04:08:20;15.00;;;2.90;;
85603;SDS011;76031;53.256;5.762;2024-02-21T04:10:45;19.25;;;4.05;;
85603;SDS011;76031;53.256;5.762;2024-02-21T04:13:10;21.08;;;4.35;;
85603;SDS011;76031;53.256;5.762;2024-02-21T04:15:39;15.48;;;3.42;;
85603;SDS011;76031;53.256;5.762;2024-02-21T04:18:04;14.70;;;3.63;;
85603;SDS011;76031;53.256;5.762;2024-02-21T04:20:29;9.38;;;3.13;;
85603;SDS011;76031;53.256;5.762;2024-02-21T04:22:55;16.48;;;2.72;;
85603;SDS011;76031;53.256;5.762;2024-02-21T04:25:21;20.33;;;2.72;;
85603;SDS011;76031;53.256;5.762;2024-02-21T04:27:46;16.70;;;3.97;;
85603;SDS011;76031;53.256;5.762;2024-02-21T04:30:12;26.97;;;4.00;;
85603;SDS011;76031;53.256;5.762;2024-02-21T04:32:37;17.08;;;3.58;;
85603;SDS011;76031;53.256;5.762;2024-02-21T04:35:03;15.88;;;2.60;;
85603;SDS011;76031;53.256;5.762;2024-02-21T04:37:28;16.40;;;3.15;;
85603;SDS011;76031;53.256;5.762;2024-02-21T04:39:53;11.30;;;2.57;;
85603;SDS011;76031;53.256;5.762;2024-02-21T04:42:18;25.27;;;3.00;;
85603;SDS011;76031;53.256;5.762;2024-02-21T04:44:44;10.57;;;3.00;;
85603;SDS011;76031;53.256;5.762;2024-02-21T04:47:09;19.33;;;3.40;;
85603;SDS011;76031;53.256;5.762;2024-02-21T04:49:35;10.02;;;2.75;;
85603;SDS011;76031;53.256;5.762;2024-02-21T04:52:00;16.43;;;3.73;;
85603;SDS011;76031;53.256;5.762;2024-02-21T04:54:26;16.40;;;3.13;;
85603;SDS011;76031;53.256;5.762;2024-02-21T04:56:51;19.90;;;4.53;;
85603;SDS011;76031;53.256;5.762;2024-02-21T04:59:16;12.70;;;3.90;;
85603;SDS011;76031;53.256;5.762;2024-02-21T05:01:42;20.67;;;5.00;;
85603;SDS011;76031;53.256;5.762;2024-02-21T05:04:07;16.30;;;4.53;;
85603;SDS011;76031;53.256;5.762;2024-02-21T05:06:36;15.05;;;3.00;;
85603;SDS011;76031;53.256;5.762;2024-02-21T05:09:01;17.83;;;3.17;;
85603;SDS011;76031;53.256;5.762;2024-02-21T05:11:27;19.50;;;3.17;;
85603;SDS011;76031;53.256;5.762;2024-02-21T05:13:52;12.97;;;3.53;;
85603;SDS011;76031;53.256;5.762;2024-02-21T05:16:17;22.93;;;4.13;;
85603;SDS011;76031;53.256;5.762;2024-02-21T05:18:44;26.45;;;4.47;;
85603;SDS011;76031;53.256;5.762;2024-02-21T05:21:09;19.73;;;3.30;;
85603;SDS011;76031;53.256;5.762;2024-02-21T05:23:35;19.70;;;3.33;;
85603;SDS011;76031;53.256;5.762;2024-02-21T05:26:00;21.40;;;4.40;;
85603;SDS011;76031;53.256;5.762;2024-02-21T05:28:25;21.05;;;3.90;;
85603;SDS011;76031;53.256;5.762;2024-02-21T05:30:51;13.93;;;2.72;;
85603;SDS011;76031;53.256;5.762;2024-02-21T05:33:16;21.23;;;4.47;;
85603;SDS011;76031;53.256;5.762;2024-02-21T05:35:47;17.80;;;3.72;;
85603;SDS011;76031;53.256;5.762;2024-02-21T05:38:13;16.13;;;4.20;;
85603;SDS011;76031;53.256;5.762;2024-02-21T05:40:38;19.73;;;4.37;;
85603;SDS011;76031;53.256;5.762;2024-02-21T05:43:04;16.97;;;3.73;;
85603;SDS011;76031;53.256;5.762;2024-02-21T05:45:32;17.23;;;3.40;;
85603;SDS011;76031;53.256;5.762;2024-02-21T05:47:58;12.98;;;3.95;;
85603;SDS011;76031;53.256;5.762;2024-02-21T05:50:23;19.33;;;4.30;;
85603;SDS011;76031;53.256;5.762;2024-02-21T05:52:51;20.27;;;3.72;;
85603;SDS011;76031;53.256;5.762;2024-02-21T05:55:16;15.70;;;3.20;;
85603;SDS011;76031;53.256;5.762;2024-02-21T05:57:41;16.57;;;2.70;;
85603;SDS011;76031;53.256;5.762;2024-02-21T06:00:07;12.63;;;4.07;;
85603;SDS011;76031;53.256;5.762;2024-02-21T06:02:32;12.77;;;3.72;;
85603;SDS011;76031;53.256;5.762;2024-02-21T06:04:58;18.63;;;4.47;;
85603;SDS011;76031;53.256;5.762;2024-02-21T06:07:23;15.53;;;3.33;;
85603;SDS011;76031;53.256;5.762;2024-02-21T06:09:48;19.35;;;4.78;;
85603;SDS011;76031;53.256;5.762;2024-02-21T06:12:14;15.73;;;4.47;;
85603;SDS011;76031;53.256;5.762;2024-02-21T06:14:39;22.83;;;3.90;;
85603;SDS011;76031;53.256;5.762;2024-02-21T06:17:04;22.33;;;4.07;;
85603;SDS011;76031;53.256;5.762;2024-02-21T06:19:30;23.77;;;4.33;;
85603;SDS011;76031;53.256;5.762;2024-02-21T06:21:55;20.43;;;4.73;;
85603;SDS011;76031;53.256;5.762;2024-02-21T06:24:20;17.00;;;4.13;;
85603;SDS011;76031;53.256;5.762;2024-02-21T06:26:45;26.93;;;4.83;;
85603;SDS011;76031;53.256;5.762;2024-02-21T06:29:11;25.60;;;4.57;;
85603;SDS011;76031;53.256;5.762;2024-02-21T06:31:36;16.47;;;3.80;;
85603;SDS011;76031;53.256;5.762;2024-02-21T06:34:01;21.37;;;5.00;;
85603;SDS011;76031;53.256;5.762;2024-02-21T06:36:27;20.65;;;4.20;;
85603;SDS011;76031;53.256;5.762;2024-02-21T06:38:52;18.97;;;3.97;;
85603;SDS011;76031;53.256;5.762;2024-02-21T06:41:18;23.07;;;4.40;;
85603;SDS011;76031;53.256;5.762;2024-02-21T06:43:45;20.67;;;5.00;;
85603;SDS011;76031;53.256;5.762;2024-02-21T06:48:36;23.13;;;4.20;;
85603;SDS011;76031;53.256;5.762;2024-02-21T06:51:01;22.00;;;3.50;;
85603;SDS011;76031;53.256;5.762;2024-02-21T06:53:26;23.17;;;4.30;;
85603;SDS011;76031;53.256;5.762;2024-02-21T06:55:52;20.73;;;3.60;;
85603;SDS011;76031;53.256;5.762;2024-02-21T06:58:17;23.17;;;4.03;;
85603;SDS011;76031;53.256;5.762;2024-02-21T07:00:42;19.02;;;3.83;;
85603;SDS011;76031;53.256;5.762;2024-02-21T07:03:08;25.15;;;5.53;;
85603;SDS011;76031;53.256;5.762;2024-02-21T07:05:33;23.50;;;4.83;;
85603;SDS011;76031;53.256;5.762;2024-02-21T07:07:58;18.27;;;5.50;;
85603;SDS011;76031;53.256;5.762;2024-02-21T07:10:23;26.97;;;5.80;;
85603;SDS011;76031;53.256;5.762;2024-02-21T07:12:49;27.23;;;4.67;;
85603;SDS011;76031;53.256;5.762;2024-02-21T07:15:14;29.87;;;6.70;;
85603;SDS011;76031;53.256;5.762;2024-02-21T07:17:41;31.98;;;6.80;;
85603;SDS011;76031;53.256;5.762;2024-02-21T07:20:06;26.00;;;6.35;;
85603;SDS011;76031;53.256;5.762;2024-02-21T07:22:32;24.75;;;6.15;;
85603;SDS011;76031;53.256;5.762;2024-02-21T07:24:57;25.77;;;7.90;;
85603;SDS011;76031;53.256;5.762;2024-02-21T07:27:22;28.67;;;6.90;;
85603;SDS011;76031;53.256;5.762;2024-02-21T07:29:48;33.83;;;7.13;;
85603;SDS011;76031;53.256;5.762;2024-02-21T07:34:42;32.23;;;7.37;;
85603;SDS011;76031;53.256;5.762;2024-02-21T07:37:07;25.95;;;6.88;;
85603;SDS011;76031;53.256;5.762;2024-02-21T07:39:36;23.02;;;5.95;;
85603;SDS011;76031;53.256;5.762;2024-02-21T07:44:27;30.57;;;6.40;;
85603;SDS011;76031;53.256;5.762;2024-02-21T07:46:53;36.60;;;7.23;;
85603;SDS011;76031;53.256;5.762;2024-02-21T07:49:21;34.03;;;8.27;;
85603;SDS011;76031;53.256;5.762;2024-02-21T07:51:46;32.90;;;7.50;;
85603;SDS011;76031;53.256;5.762;2024-02-21T07:54:11;39.30;;;7.83;;
85603;SDS011;76031;53.256;5.762;2024-02-21T07:56:37;36.53;;;8.52;;
85603;SDS011;76031;53.256;5.762;2024-02-21T07:59:03;27.83;;;6.30;;
85603;SDS011;76031;53.256;5.762;2024-02-21T08:01:28;30.00;;;8.27;;
85603;SDS011;76031;53.256;5.762;2024-02-21T08:03:53;24.50;;;7.90;;
85603;SDS011;76031;53.256;5.762;2024-02-21T08:06:18;27.63;;;7.57;;
85603;SDS011;76031;53.256;5.762;2024-02-21T08:08:44;23.60;;;7.20;;
85603;SDS011;76031;53.256;5.762;2024-02-21T08:11:09;22.47;;;6.50;;
85603;SDS011;76031;53.256;5.762;2024-02-21T08:13:34;32.53;;;9.00;;
85603;SDS011;76031;53.256;5.762;2024-02-21T08:16:00;26.13;;;7.97;;
85603;SDS011;76031;53.256;5.762;2024-02-21T08:18:25;30.13;;;7.17;;
85603;SDS011;76031;53.256;5.762;2024-02-21T08:20:50;30.70;;;9.00;;
85603;SDS011;76031;53.256;5.762;2024-02-21T08:23:16;29.07;;;8.77;;
85603;SDS011;76031;53.256;5.762;2024-02-21T08:25:42;33.17;;;10.50;;
85603;SDS011;76031;53.256;5.762;2024-02-21T08:28:07;33.37;;;10.23;;
85603;SDS011;76031;53.256;5.762;2024-02-21T08:30:33;23.25;;;8.38;;
85603;SDS011;76031;53.256;5.762;2024-02-21T08:32:58;31.27;;;8.63;;
85603;SDS011;76031;53.256;5.762;2024-02-21T08:35:24;30.37;;;8.37;;
85603;SDS011;76031;53.256;5.762;2024-02-21T08:37:49;26.63;;;8.18;;
85603;SDS011;76031;53.256;5.762;2024-02-21T08:40:15;26.55;;;7.47;;
85603;SDS011;76031;53.256;5.762;2024-02-21T08:42:43;29.52;;;7.05;;
85603;SDS011;76031;53.256;5.762;2024-02-21T08:45:08;21.73;;;6.63;;
85603;SDS011;76031;53.256;5.762;2024-02-21T08:47:33;19.20;;;5.93;;
85603;SDS011;76031;53.256;5.762;2024-02-21T08:52:25;23.27;;;6.00;;
85603;SDS011;76031;53.256;5.762;2024-02-21T08:54:50;19.40;;;6.20;;
85603;SDS011;76031;53.256;5.762;2024-02-21T08:57:18;18.55;;;5.60;;
85603;SDS011;76031;53.256;5.762;2024-02-21T08:59:44;20.92;;;5.75;;
85603;SDS011;76031;53.256;5.762;2024-02-21T09:02:09;23.43;;;5.93;;
85603;SDS011;76031;53.256;5.762;2024-02-21T09:04:34;19.15;;;6.40;;
85603;SDS011;76031;53.256;5.762;2024-02-21T09:07:00;18.77;;;6.47;;
85603;SDS011;76031;53.256;5.762;2024-02-21T09:09:25;25.27;;;8.77;;
85603;SDS011;76031;53.256;5.762;2024-02-21T09:11:50;22.20;;;8.70;;
85603;SDS011;76031;53.256;5.762;2024-02-21T09:14:17;22.13;;;8.15;;
85603;SDS011;76031;53.256;5.762;2024-02-21T09:19:09;21.50;;;9.32;;
85603;SDS011;76031;53.256;5.762;2024-02-21T09:21:36;22.05;;;8.48;;
85603;SDS011;76031;53.256;5.762;2024-02-21T09:24:01;21.88;;;10.02;;
85603;SDS011;76031;53.256;5.762;2024-02-21T09:26:27;23.23;;;10.43;;
85603;SDS011;76031;53.256;5.762;2024-02-21T09:28:53;28.63;;;12.10;;
85603;SDS011;76031;53.256;5.762;2024-02-21T09:31:18;20.67;;;11.57;;
85603;SDS011;76031;53.256;5.762;2024-02-21T09:33:44;25.00;;;11.48;;
85603;SDS011;76031;53.256;5.762;2024-02-21T09:36:10;31.05;;;12.00;;
85603;SDS011;76031;53.256;5.762;2024-02-21T09:38:36;24.33;;;11.55;;
85603;SDS011;76031;53.256;5.762;2024-02-21T09:41:15;29.23;;;11.13;;
85603;SDS011;76031;53.256;5.762;2024-02-21T09:43:42;25.65;;;11.40;;
85603;SDS011;76031;53.256;5.762;2024-02-21T09:46:07;22.87;;;11.83;;
85603;SDS011;76031;53.256;5.762;2024-02-21T09:48:44;22.75;;;10.98;;
85603;SDS011;76031;53.256;5.762;2024-02-21T09:51:12;25.17;;;12.70;;
85603;SDS011;76031;53.256;5.762;2024-02-21T09:53:39;24.25;;;11.70;;
85603;SDS011;76031;53.256;5.762;2024-02-21T09:56:07;23.63;;;10.93;;
85603;SDS011;76031;53.256;5.762;2024-02-21T09:58:33;23.88;;;10.57;;
85603;SDS011;76031;53.256;5.762;2024-02-21T10:00:59;21.48;;;12.93;;
85603;SDS011;76031;53.256;5.762;2024-02-21T10:03:25;23.00;;;12.60;;
85603;SDS011;76031;53.256;5.762;2024-02-21T10:05:50;29.25;;;12.38;;
85603;SDS011;76031;53.256;5.762;2024-02-21T10:08:16;23.00;;;10.97;;
85603;SDS011;76031;53.256;5.762;2024-02-21T10:10:44;26.48;;;13.48;;
85603;SDS011;76031;53.256;5.762;2024-02-21T10:13:10;22.13;;;11.68;;
85603;SDS011;76031;53.256;5.762;2024-02-21T10:15:36;29.15;;;13.00;;
85603;SDS011;76031;53.256;5.762;2024-02-21T10:18:02;23.83;;;12.57;;
85603;SDS011;76031;53.256;5.762;2024-02-21T10:20:31;27.80;;;12.50;;
85603;SDS011;76031;53.256;5.762;2024-02-21T10:23:04;25.95;;;12.88;;
85603;SDS011;76031;53.256;5.762;2024-02-21T10:25:33;22.75;;;11.93;;
85603;SDS011;76031;53.256;5.762;2024-02-21T10:27:58;25.30;;;13.10;;
85603;SDS011;76031;53.256;5.762;2024-02-21T10:30:24;21.67;;;11.57;;
85603;SDS011;76031;53.256;5.762;2024-02-21T10:32:52;26.67;;;11.20;;
85603;SDS011;76031;53.256;5.762;2024-02-21T10:35:27;22.52;;;12.88;;
85603;SDS011;76031;53.256;5.762;2024-02-21T10:37:54;24.80;;;12.55;;
85603;SDS011;76031;53.256;5.762;2024-02-21T10:40:24;26.65;;;12.30;;
85603;SDS011;76031;53.256;5.762;2024-02-21T10:42:51;21.25;;;11.70;;
85603;SDS011;76031;53.256;5.762;2024-02-21T10:45:17;23.80;;;12.50;;
85603;SDS011;76031;53.256;5.762;2024-02-21T10:47:43;21.50;;;11.93;;
85603;SDS011;76031;53.256;5.762;2024-02-21T10:50:13;21.15;;;11.95;;
85603;SDS011;76031;53.256;5.762;2024-02-21T10:53:04;25.02;;;13.18;;
85603;SDS011;76031;53.256;5.762;2024-02-21T10:55:26;22.20;;;12.77;;
85603;SDS011;76031;53.256;5.762;2024-02-21T10:57:58;23.00;;;11.70;;
85603;SDS011;76031;53.256;5.762;2024-02-21T11:00:23;25.27;;;13.40;;
85603;SDS011;76031;53.256;5.762;2024-02-21T11:02:55;22.88;;;12.43;;
85603;SDS011;76031;53.256;5.762;2024-02-21T11:05:21;22.60;;;11.40;;
85603;SDS011;76031;53.256;5.762;2024-02-21T11:07:46;22.30;;;13.07;;
85603;SDS011;76031;53.256;5.762;2024-02-21T11:10:24;24.40;;;13.45;;
85603;SDS011;76031;53.256;5.762;2024-02-21T11:12:53;25.40;;;13.70;;
85603;SDS011;76031;53.256;5.762;2024-02-21T11:15:24;26.05;;;13.10;;
85603;SDS011;76031;53.256;5.762;2024-02-21T11:17:53;27.73;;;14.10;;
85603;SDS011;76031;53.256;5.762;2024-02-21T11:20:19;21.90;;;12.52;;
85603;SDS011;76031;53.256;5.762;2024-02-21T11:22:44;25.20;;;13.05;;
85603;SDS011;76031;53.256;5.762;2024-02-21T11:25:10;23.77;;;12.07;;
85603;SDS011;76031;53.256;5.762;2024-02-21T11:27:36;24.83;;;13.50;;
85603;SDS011;76031;53.256;5.762;2024-02-21T11:30:03;19.40;;;10.70;;
85603;SDS011;76031;53.256;5.762;2024-02-21T11:32:29;23.38;;;13.70;;
85603;SDS011;76031;53.256;5.762;2024-02-21T11:34:56;23.80;;;12.07;;
85603;SDS011;76031;53.256;5.762;2024-02-21T11:37:23;22.63;;;12.40;;
85603;SDS011;76031;53.256;5.762;2024-02-21T11:39:49;20.65;;;12.63;;
85603;SDS011;76031;53.256;5.762;2024-02-21T11:42:15;22.60;;;13.27;;
85603;SDS011;76031;53.256;5.762;2024-02-21T11:44:40;24.45;;;13.90;;
85603;SDS011;76031;53.256;5.762;2024-02-21T11:47:07;26.77;;;15.15;;
85603;SDS011;76031;53.256;5.762;2024-02-21T11:49:44;23.38;;;13.57;;
85603;SDS011;76031;53.256;5.762;2024-02-21T11:52:11;23.40;;;14.98;;
85603;SDS011;76031;53.256;5.762;2024-02-21T11:54:36;20.83;;;13.27;;
85603;SDS011;76031;53.256;5.762;2024-02-21T11:57:01;25.87;;;14.03;;
85603;SDS011;76031;53.256;5.762;2024-02-21T11:59:32;28.15;;;14.82;;
85603;SDS011;76031;53.256;5.762;2024-02-21T12:01:58;22.33;;;12.88;;
85603;SDS011;76031;53.256;5.762;2024-02-21T12:04:24;23.52;;;15.27;;
85603;SDS011;76031;53.256;5.762;2024-02-21T12:06:50;21.65;;;13.65;;
85603;SDS011;76031;53.256;5.762;2024-02-21T12:09:16;20.90;;;12.20;;
85603;SDS011;76031;53.256;5.762;2024-02-21T12:11:41;25.10;;;13.80;;
85603;SDS011;76031;53.256;5.762;2024-02-21T12:14:07;20.65;;;13.52;;
85603;SDS011;76031;53.256;5.762;2024-02-21T12:16:34;22.83;;;12.63;;
85603;SDS011;76031;53.256;5.762;2024-02-21T12:19:01;25.48;;;12.60;;
85603;SDS011;76031;53.256;5.762;2024-02-21T12:21:29;21.45;;;11.65;;
85603;SDS011;76031;53.256;5.762;2024-02-21T12:23:55;21.75;;;11.85;;
85603;SDS011;76031;53.256;5.762;2024-02-21T12:26:21;22.95;;;12.63;;
85603;SDS011;76031;53.256;5.762;2024-02-21T12:28:46;21.42;;;11.55;;
85603;SDS011;76031;53.256;5.762;2024-02-21T12:31:12;19.50;;;11.60;;
85603;SDS011;76031;53.256;5.762;2024-02-21T12:33:37;24.88;;;12.25;;
85603;SDS011;76031;53.256;5.762;2024-02-21T12:36:02;24.97;;;12.77;;
85603;SDS011;76031;53.256;5.762;2024-02-21T12:38:29;24.75;;;12.52;;
85603;SDS011;76031;53.256;5.762;2024-02-21T12:40:54;22.67;;;12.48;;
85603;SDS011;76031;53.256;5.762;2024-02-21T12:43:20;20.48;;;10.80;;
85603;SDS011;76031;53.256;5.762;2024-02-21T12:45:45;21.25;;;10.90;;
85603;SDS011;76031;53.256;5.762;2024-02-21T12:48:10;17.23;;;10.10;;
85603;SDS011;76031;53.256;5.762;2024-02-21T12:50:35;14.27;;;9.10;;
85603;SDS011;76031;53.256;5.762;2024-02-21T12:53:01;15.60;;;9.33;;
85603;SDS011;76031;53.256;5.762;2024-02-21T12:55:26;16.85;;;9.02;;
85603;SDS011;76031;53.256;5.762;2024-02-21T12:57:52;14.30;;;8.63;;
85603;SDS011;76031;53.256;5.762;2024-02-21T13:00:17;15.77;;;8.90;;
85603;SDS011;76031;53.256;5.762;2024-02-21T13:02:42;12.52;;;8.45;;
85603;SDS011;76031;53.256;5.762;2024-02-21T13:05:08;10.97;;;7.60;;
85603;SDS011;76031;53.256;5.762;2024-02-21T13:07:33;14.18;;;7.85;;
85603;SDS011;76031;53.256;5.762;2024-02-21T13:09:58;11.67;;;7.03;;
85603;SDS011;76031;53.256;5.762;2024-02-21T13:12:24;14.03;;;7.37;;
85603;SDS011;76031;53.256;5.762;2024-02-21T13:14:51;10.82;;;6.95;;
85603;SDS011;76031;53.256;5.762;2024-02-21T13:17:16;9.25;;;6.07;;
85603;SDS011;76031;53.256;5.762;2024-02-21T13:19:42;12.30;;;7.25;;
85603;SDS011;76031;53.256;5.762;2024-02-21T13:22:07;9.50;;;6.30;;
85603;SDS011;76031;53.256;5.762;2024-02-21T13:24:32;11.03;;;6.60;;
85603;SDS011;76031;53.256;5.762;2024-02-21T13:26:58;9.63;;;6.63;;
85603;SDS011;76031;53.256;5.762;2024-02-21T13:29:23;11.88;;;5.82;;
85603;SDS011;76031;53.256;5.762;2024-02-21T13:31:48;12.57;;;6.37;;
85603;SDS011;76031;53.256;5.762;2024-02-21T13:34:15;11.52;;;5.70;;
85603;SDS011;76031;53.256;5.762;2024-02-21T13:36:40;11.27;;;6.80;;
85603;SDS011;76031;53.256;5.762;2024-02-21T13:39:05;9.87;;;6.83;;
85603;SDS011;76031;53.256;5.762;2024-02-21T13:43:58;13.00;;;7.32;;
85603;SDS011;76031;53.256;5.762;2024-02-21T13:46:25;11.13;;;6.28;;
85603;SDS011;76031;53.256;5.762;2024-02-21T13:48:52;11.48;;;6.15;;
85603;SDS011;76031;53.256;5.762;2024-02-21T13:51:22;10.75;;;7.25;;
85603;SDS011;76031;53.256;5.762;2024-02-21T13:53:47;10.48;;;6.57;;
85603;SDS011;76031;53.256;5.762;2024-02-21T13:56:13;11.40;;;6.18;;
85603;SDS011;76031;53.256;5.762;2024-02-21T13:58:38;11.53;;;6.87;;
85603;SDS011;76031;53.256;5.762;2024-02-21T14:01:03;10.40;;;6.43;;
85603;SDS011;76031;53.256;5.762;2024-02-21T14:03:28;11.43;;;6.50;;
85603;SDS011;76031;53.256;5.762;2024-02-21T14:05:54;10.48;;;5.70;;
85603;SDS011;76031;53.256;5.762;2024-02-21T14:08:19;10.85;;;5.85;;
85603;SDS011;76031;53.256;5.762;2024-02-21T14:10:45;9.65;;;6.80;;
85603;SDS011;76031;53.256;5.762;2024-02-21T14:13:10;10.37;;;6.90;;
85603;SDS011;76031;53.256;5.762;2024-02-21T14:15:36;11.23;;;6.53;;
85603;SDS011;76031;53.256;5.762;2024-02-21T14:18:04;11.50;;;6.07;;
85603;SDS011;76031;53.256;5.762;2024-02-21T14:20:34;10.73;;;6.90;;
85603;SDS011;76031;53.256;5.762;2024-02-21T14:22:59;13.23;;;6.60;;
85603;SDS011;76031;53.256;5.762;2024-02-21T14:25:24;11.77;;;6.78;;
85603;SDS011;76031;53.256;5.762;2024-02-21T14:27:50;10.63;;;6.67;;
85603;SDS011;76031;53.256;5.762;2024-02-21T14:30:16;11.95;;;7.63;;
85603;SDS011;76031;53.256;5.762;2024-02-21T14:32:43;10.47;;;7.07;;
85603;SDS011;76031;53.256;5.762;2024-02-21T14:35:08;11.15;;;7.18;;
85603;SDS011;76031;53.256;5.762;2024-02-21T14:37:33;12.03;;;7.97;;
85603;SDS011;76031;53.256;5.762;2024-02-21T14:39:59;8.97;;;5.87;;